sensor_id;sensor_type;location;lat;lon;timestamp;noise_LAeq;noise_LA_min;noise_LA_max;noise_LA01;noise_LA95
57092;Laerm;42968;52.094;4.328;2022-08-03T00:00:52;50.05;37.32;70.35;;
57092;Laerm;42968;52.094;4.328;2022-08-03T00:03:18;52.60;36.91;69.70;;
57092;Laerm;42968;52.094;4.328;2022-08-03T00:05:43;52.51;37.70;67.00;;
57092;Laerm;42968;52.094;4.328;2022-08-03T00:08:08;41.66;37.70;53.38;;
57092;Laerm;42968;52.094;4.328;2022-08-03T00:10:33;51.48;37.32;69.17;;
57092;Laerm;42968;52.094;4.328;2022-08-03T00:12:59;57.09;38.52;75.08;;
57092;Laerm;42968;52.094;4.328;2022-08-03T00:15:24;53.84;38.05;71.91;;
57092;Laerm;42968;52.094;4.328;2022-08-03T00:17:49;52.89;35.36;70.13;;
57092;Laerm;42968;52.094;4.328;2022-08-03T00:20:14;40.93;36.20;47.04;;
57092;Laerm;42968;52.094;4.328;2022-08-03T00:22:40;52.87;37.87;71.89;;
57092;Laerm;42968;52.094;4.328;2022-08-03T00:25:05;55.98;39.21;69.14;;
57092;Laerm;42968;52.094;4.328;2022-08-03T00:27:30;50.77;36.69;67.97;;
57092;Laerm;42968;52.094;4.328;2022-08-03T00:29:56;50.45;36.91;66.10;;
57092;Laerm;42968;52.094;4.328;2022-08-03T00:32:21;42.88;37.70;50.30;;
57092;Laerm;42968;52.094;4.328;2022-08-03T00:34:46;50.31;37.12;68.75;;
57092;Laerm;42968;52.094;4.328;2022-08-03T00:37:12;51.56;37.52;71.80;;
57092;Laerm;42968;52.094;4.328;2022-08-03T00:39:37;50.15;35.04;65.82;;
57092;Laerm;42968;52.094;4.328;2022-08-03T00:42:03;41.26;37.52;44.23;;
57092;Laerm;42968;52.094;4.328;2022-08-03T00:44:28;48.90;37.12;63.51;;
57092;Laerm;42968;52.094;4.328;2022-08-03T00:46:53;40.70;35.94;47.98;;
57092;Laerm;42968;52.094;4.328;2022-08-03T00:49:18;54.72;37.12;73.86;;
57092;Laerm;42968;52.094;4.328;2022-08-03T00:51:44;53.47;37.70;70.83;;
57092;Laerm;42968;52.094;4.328;2022-08-03T00:54:09;53.38;38.52;68.72;;
57092;Laerm;42968;52.094;4.328;2022-08-03T00:56:34;52.03;37.32;71.68;;
57092;Laerm;42968;52.094;4.328;2022-08-03T00:59:00;40.94;36.91;46.71;;
57092;Laerm;42968;52.094;4.328;2022-08-03T01:01:27;49.67;35.04;65.94;;
57092;Laerm;42968;52.094;4.328;2022-08-03T01:03:52;50.91;37.32;66.72;;
57092;Laerm;42968;52.094;4.328;2022-08-03T01:06:19;40.62;36.91;42.76;;
57092;Laerm;42968;52.094;4.328;2022-08-03T01:09:01;52.08;35.94;70.36;;
57092;Laerm;42968;52.094;4.328;2022-08-03T01:11:40;41.35;36.69;54.16;;
57092;Laerm;42968;52.094;4.328;2022-08-03T01:14:09;53.43;36.20;72.72;;
57092;Laerm;42968;52.094;4.328;2022-08-03T01:27:08;55.97;38.37;71.56;;
57092;Laerm;42968;52.094;4.328;2022-08-03T01:29:39;54.22;37.52;69.54;;
57092;Laerm;42968;52.094;4.328;2022-08-03T01:32:13;49.53;36.69;64.83;;
57092;Laerm;42968;52.094;4.328;2022-08-03T01:34:41;41.07;35.66;50.19;;
57092;Laerm;42968;52.094;4.328;2022-08-03T01:37:08;48.92;37.52;66.16;;
57092;Laerm;42968;52.094;4.328;2022-08-03T01:39:35;56.50;35.66;73.03;;
57092;Laerm;42968;52.094;4.328;2022-08-03T01:42:03;40.66;35.04;50.16;;
57092;Laerm;42968;52.094;4.328;2022-08-03T01:44:30;40.59;34.69;46.76;;
57092;Laerm;42968;52.094;4.328;2022-08-03T01:46:58;51.23;37.12;67.06;;
57092;Laerm;42968;52.094;4.328;2022-08-03T01:49:24;41.70;37.12;53.26;;
57092;Laerm;42968;52.094;4.328;2022-08-03T01:51:50;40.62;35.04;42.71;;
57092;Laerm;42968;52.094;4.328;2022-08-03T01:54:16;40.71;37.32;42.82;;
57092;Laerm;42968;52.094;4.328;2022-08-03T01:56:42;40.82;35.94;48.92;;
57092;Laerm;42968;52.094;4.328;2022-08-03T01:59:08;53.82;36.45;70.26;;
57092;Laerm;42968;52.094;4.328;2022-08-03T02:01:35;40.97;35.36;44.15;;
57092;Laerm;42968;52.094;4.328;2022-08-03T02:04:00;40.98;36.20;53.03;;
57092;Laerm;42968;52.094;4.328;2022-08-03T02:06:28;53.77;37.52;68.95;;
57092;Laerm;42968;52.094;4.328;2022-08-03T02:08:54;40.73;37.52;44.87;;
57092;Laerm;42968;52.094;4.328;2022-08-03T02:11:21;41.07;36.69;44.94;;
57092;Laerm;42968;52.094;4.328;2022-08-03T02:13:46;55.92;37.32;75.99;;
57092;Laerm;42968;52.094;4.328;2022-08-03T02:16:12;50.94;37.12;67.57;;
57092;Laerm;42968;52.094;4.328;2022-08-03T02:18:37;56.11;37.52;77.10;;
57092;Laerm;42968;52.094;4.328;2022-08-03T02:21:04;40.88;35.94;47.79;;
57092;Laerm;42968;52.094;4.328;2022-08-03T02:23:31;40.78;35.36;46.66;;
57092;Laerm;42968;52.094;4.328;2022-08-03T02:25:57;41.03;37.17;47.57;;
57092;Laerm;42968;52.094;4.328;2022-08-03T02:28:34;48.65;37.70;63.91;;
57092;Laerm;42968;52.094;4.328;2022-08-03T02:31:02;42.46;37.70;55.22;;
57092;Laerm;42968;52.094;4.328;2022-08-03T02:33:32;51.97;37.12;68.53;;
57092;Laerm;42968;52.094;4.328;2022-08-03T02:35:59;53.41;37.52;69.12;;
57092;Laerm;42968;52.094;4.328;2022-08-03T02:38:26;50.27;37.52;66.95;;
57092;Laerm;42968;52.094;4.328;2022-08-03T02:40:53;53.92;37.70;69.42;;
57092;Laerm;42968;52.094;4.328;2022-08-03T02:43:19;48.07;36.10;63.67;;
57092;Laerm;42968;52.094;4.328;2022-08-03T02:45:46;48.96;37.32;68.11;;
57092;Laerm;42968;52.094;4.328;2022-08-03T02:48:15;56.90;36.91;74.02;;
57092;Laerm;42968;52.094;4.328;2022-08-03T02:50:41;51.03;36.20;67.72;;
57092;Laerm;42968;52.094;4.328;2022-08-03T02:53:08;51.92;37.12;68.60;;
57092;Laerm;42968;52.094;4.328;2022-08-03T02:55:35;41.07;36.45;44.87;;
57092;Laerm;42968;52.094;4.328;2022-08-03T02:58:01;51.61;37.52;68.74;;
57092;Laerm;42968;52.094;4.328;2022-08-03T03:00:26;49.96;37.52;65.19;;
57092;Laerm;42968;52.094;4.328;2022-08-03T03:02:52;41.79;36.45;46.93;;
57092;Laerm;42968;52.094;4.328;2022-08-03T03:05:19;55.50;36.45;72.38;;
57092;Laerm;42968;52.094;4.328;2022-08-03T03:07:44;52.14;38.81;74.21;;
57092;Laerm;42968;52.094;4.328;2022-08-03T03:10:10;55.67;37.70;71.47;;
57092;Laerm;42968;52.094;4.328;2022-08-03T03:12:36;54.41;39.34;70.99;;
57092;Laerm;42968;52.094;4.328;2022-08-03T03:15:03;58.91;38.67;75.09;;
57092;Laerm;42968;52.094;4.328;2022-08-03T03:17:29;62.13;39.81;77.80;;
57092;Laerm;42968;52.094;4.328;2022-08-03T03:19:55;56.39;39.08;71.64;;
57092;Laerm;42968;52.094;4.328;2022-08-03T03:22:21;58.42;38.81;72.55;;
57092;Laerm;42968;52.094;4.328;2022-08-03T03:24:47;62.55;37.88;75.11;;
57092;Laerm;42968;52.094;4.328;2022-08-03T03:27:13;61.74;41.53;75.42;;
57092;Laerm;42968;52.094;4.328;2022-08-03T03:29:39;57.58;40.03;72.79;;
57092;Laerm;42968;52.094;4.328;2022-08-03T03:32:04;61.34;41.68;78.51;;
57092;Laerm;42968;52.094;4.328;2022-08-03T03:34:30;59.28;39.58;73.96;;
57092;Laerm;42968;52.094;4.328;2022-08-03T03:36:55;63.59;40.18;79.76;;
57092;Laerm;42968;52.094;4.328;2022-08-03T03:39:20;60.36;40.62;74.23;;
57092;Laerm;42968;52.094;4.328;2022-08-03T03:41:46;62.55;41.53;76.83;;
57092;Laerm;42968;52.094;4.328;2022-08-03T03:44:11;65.19;41.68;83.34;;
57092;Laerm;42968;52.094;4.328;2022-08-03T03:46:37;60.40;40.43;74.52;;
57092;Laerm;42968;52.094;4.328;2022-08-03T03:49:04;61.99;40.62;81.23;;
57092;Laerm;42968;52.094;4.328;2022-08-03T03:51:29;62.99;41.75;79.61;;
57092;Laerm;42968;52.094;4.328;2022-08-03T03:53:55;62.92;41.30;77.25;;
57092;Laerm;42968;52.094;4.328;2022-08-03T03:56:21;59.77;42.29;72.85;;
57092;Laerm;42968;52.094;4.328;2022-08-03T03:58:46;64.53;45.14;81.32;;
57092;Laerm;42968;52.094;4.328;2022-08-03T04:01:11;58.83;41.61;72.31;;
57092;Laerm;42968;52.094;4.328;2022-08-03T04:03:37;62.94;42.98;79.63;;
57092;Laerm;42968;52.094;4.328;2022-08-03T04:06:02;64.19;44.07;80.47;;
57092;Laerm;42968;52.094;4.328;2022-08-03T04:08:46;60.33;41.22;72.15;;
57092;Laerm;42968;52.094;4.328;2022-08-03T04:11:32;60.85;41.75;73.66;;
57092;Laerm;42968;52.094;4.328;2022-08-03T04:14:18;65.67;42.22;76.75;;
57092;Laerm;42968;52.094;4.328;2022-08-03T04:16:48;62.48;41.22;75.63;;
57092;Laerm;42968;52.094;4.328;2022-08-03T04:19:16;64.06;46.43;77.48;;
57092;Laerm;42968;52.094;4.328;2022-08-03T04:21:43;65.50;44.97;82.68;;
57092;Laerm;42968;52.094;4.328;2022-08-03T04:24:10;64.63;42.76;75.99;;
57092;Laerm;42968;52.094;4.328;2022-08-03T04:26:38;64.37;43.44;79.61;;
57092;Laerm;42968;52.094;4.328;2022-08-03T04:29:05;61.03;44.03;74.04;;
57092;Laerm;42968;52.094;4.328;2022-08-03T04:31:30;64.62;45.45;78.62;;
57092;Laerm;42968;52.094;4.328;2022-08-03T04:33:56;65.84;42.65;76.21;;
57092;Laerm;42968;52.094;4.328;2022-08-03T04:36:22;65.92;46.33;82.40;;
57092;Laerm;42968;52.094;4.328;2022-08-03T04:38:53;66.31;44.97;80.31;;
57092;Laerm;42968;52.094;4.328;2022-08-03T04:41:19;62.26;42.53;73.12;;
57092;Laerm;42968;52.094;4.328;2022-08-03T04:43:46;66.48;47.44;80.80;;
57092;Laerm;42968;52.094;4.328;2022-08-03T04:46:13;65.73;48.07;78.48;;
57092;Laerm;42968;52.094;4.328;2022-08-03T04:48:39;66.43;44.58;78.80;;
57092;Laerm;42968;52.094;4.328;2022-08-03T04:51:05;70.79;45.39;93.00;;
57092;Laerm;42968;52.094;4.328;2022-08-03T04:53:31;66.18;46.89;78.48;;
57092;Laerm;42968;52.094;4.328;2022-08-03T04:56:02;66.05;45.60;78.36;;
57092;Laerm;42968;52.094;4.328;2022-08-03T04:58:28;64.81;43.54;77.16;;
57092;Laerm;42968;52.094;4.328;2022-08-03T05:00:53;66.26;44.80;79.33;;
57092;Laerm;42968;52.094;4.328;2022-08-03T05:03:18;67.28;47.59;79.89;;
57092;Laerm;42968;52.094;4.328;2022-08-03T05:05:43;64.66;48.61;78.54;;
57092;Laerm;42968;52.094;4.328;2022-08-03T05:08:08;64.94;47.65;79.09;;
57092;Laerm;42968;52.094;4.328;2022-08-03T05:10:34;64.78;43.63;75.68;;
57092;Laerm;42968;52.094;4.328;2022-08-03T05:12:59;65.40;45.77;76.53;;
57092;Laerm;42968;52.094;4.328;2022-08-03T05:15:24;65.84;44.19;75.59;;
57092;Laerm;42968;52.094;4.328;2022-08-03T05:17:49;65.50;51.16;76.43;;
57092;Laerm;42968;52.094;4.328;2022-08-03T05:20:15;67.30;45.63;82.05;;
57092;Laerm;42968;52.094;4.328;2022-08-03T05:22:40;67.92;45.17;81.86;;
57092;Laerm;42968;52.094;4.328;2022-08-03T05:25:05;65.70;44.83;77.58;;
57092;Laerm;42968;52.094;4.328;2022-08-03T05:27:31;67.40;47.26;76.43;;
57092;Laerm;42968;52.094;4.328;2022-08-03T05:29:56;66.60;47.61;79.47;;
57092;Laerm;42968;52.094;4.328;2022-08-03T05:32:21;67.05;49.34;79.31;;
57092;Laerm;42968;52.094;4.328;2022-08-03T05:34:46;67.59;50.22;78.29;;
57092;Laerm;42968;52.094;4.328;2022-08-03T05:37:11;67.69;51.15;78.06;;
57092;Laerm;42968;52.094;4.328;2022-08-03T05:39:37;68.09;47.81;80.11;;
57092;Laerm;42968;52.094;4.328;2022-08-03T05:42:02;66.79;47.10;77.45;;
57092;Laerm;42968;52.094;4.328;2022-08-03T05:44:27;69.85;46.76;85.81;;
57092;Laerm;42968;52.094;4.328;2022-08-03T05:46:53;66.77;48.88;78.21;;
57092;Laerm;42968;52.094;4.328;2022-08-03T05:49:18;69.48;51.04;82.28;;
57092;Laerm;42968;52.094;4.328;2022-08-03T05:51:44;67.24;45.80;76.46;;
57092;Laerm;42968;52.094;4.328;2022-08-03T05:54:09;67.44;50.89;82.55;;
57092;Laerm;42968;52.094;4.328;2022-08-03T05:56:34;69.17;49.25;80.20;;
57092;Laerm;42968;52.094;4.328;2022-08-03T05:59:00;65.63;48.45;77.14;;
57092;Laerm;42968;52.094;4.328;2022-08-03T06:01:25;67.21;49.25;77.97;;
57092;Laerm;42968;52.094;4.328;2022-08-03T06:03:50;67.35;47.65;77.97;;
57092;Laerm;42968;52.094;4.328;2022-08-03T06:06:16;67.15;48.52;75.85;;
57092;Laerm;42968;52.094;4.328;2022-08-03T06:08:41;68.26;49.46;79.93;;
57092;Laerm;42968;52.094;4.328;2022-08-03T06:11:07;68.50;52.90;80.73;;
57092;Laerm;42968;52.094;4.328;2022-08-03T06:13:32;67.15;46.50;76.07;;
57092;Laerm;42968;52.094;4.328;2022-08-03T06:15:58;67.08;48.72;77.88;;
57092;Laerm;42968;52.094;4.328;2022-08-03T06:18:23;67.81;46.54;77.19;;
57092;Laerm;42968;52.094;4.328;2022-08-03T06:20:48;67.21;48.77;77.82;;
57092;Laerm;42968;52.094;4.328;2022-08-03T06:23:14;67.22;46.43;76.64;;
57092;Laerm;42968;52.094;4.328;2022-08-03T06:25:40;69.31;53.62;79.94;;
57092;Laerm;42968;52.094;4.328;2022-08-03T06:28:05;66.59;50.47;79.03;;
57092;Laerm;42968;52.094;4.328;2022-08-03T06:30:30;66.77;48.25;77.90;;
57092;Laerm;42968;52.094;4.328;2022-08-03T06:32:55;66.36;44.80;81.71;;
57092;Laerm;42968;52.094;4.328;2022-08-03T06:35:21;69.73;47.67;79.54;;
57092;Laerm;42968;52.094;4.328;2022-08-03T06:37:47;68.59;55.70;81.82;;
57092;Laerm;42968;52.094;4.328;2022-08-03T06:40:14;68.65;49.68;79.19;;
57092;Laerm;42968;52.094;4.328;2022-08-03T06:42:40;71.57;54.53;86.95;;
57092;Laerm;42968;52.094;4.328;2022-08-03T06:45:05;67.37;51.35;79.17;;
57092;Laerm;42968;52.094;4.328;2022-08-03T06:47:31;67.22;47.57;76.69;;
57092;Laerm;42968;52.094;4.328;2022-08-03T06:49:56;68.76;55.60;81.73;;
57092;Laerm;42968;52.094;4.328;2022-08-03T06:52:21;66.62;48.05;73.84;;
57092;Laerm;42968;52.094;4.328;2022-08-03T06:54:47;67.93;49.43;79.94;;
57092;Laerm;42968;52.094;4.328;2022-08-03T06:57:12;67.15;49.28;77.63;;
57092;Laerm;42968;52.094;4.328;2022-08-03T06:59:38;66.94;46.87;79.47;;
57092;Laerm;42968;52.094;4.328;2022-08-03T07:02:03;68.46;49.06;79.94;;
57092;Laerm;42968;52.094;4.328;2022-08-03T07:04:28;67.36;47.34;77.10;;
57092;Laerm;42968;52.094;4.328;2022-08-03T07:06:54;65.64;48.74;72.72;;
57092;Laerm;42968;52.094;4.328;2022-08-03T07:09:19;68.51;50.97;78.28;;
57092;Laerm;42968;52.094;4.328;2022-08-03T07:11:44;68.08;46.76;79.63;;
57092;Laerm;42968;52.094;4.328;2022-08-03T07:14:09;66.93;52.23;73.48;;
57092;Laerm;42968;52.094;4.328;2022-08-03T07:16:35;67.59;47.77;78.07;;
57092;Laerm;42968;52.094;4.328;2022-08-03T07:19:00;69.41;46.30;86.32;;
57092;Laerm;42968;52.094;4.328;2022-08-03T07:21:25;66.68;49.51;79.28;;
57092;Laerm;42968;52.094;4.328;2022-08-03T07:23:50;67.95;48.94;80.23;;
57092;Laerm;42968;52.094;4.328;2022-08-03T07:26:16;68.85;45.75;77.37;;
57092;Laerm;42968;52.094;4.328;2022-08-03T07:28:41;66.30;49.35;75.22;;
57092;Laerm;42968;52.094;4.328;2022-08-03T07:31:06;67.28;50.84;75.63;;
57092;Laerm;42968;52.094;4.328;2022-08-03T07:33:32;67.81;50.06;78.70;;
57092;Laerm;42968;52.094;4.328;2022-08-03T07:35:57;68.02;45.72;87.94;;
57092;Laerm;42968;52.094;4.328;2022-08-03T07:38:22;67.36;55.15;81.61;;
57092;Laerm;42968;52.094;4.328;2022-08-03T07:40:47;68.59;53.86;82.43;;
57092;Laerm;42968;52.094;4.328;2022-08-03T07:43:13;67.64;46.89;77.41;;
57092;Laerm;42968;52.094;4.328;2022-08-03T07:45:38;68.86;51.01;87.09;;
57092;Laerm;42968;52.094;4.328;2022-08-03T07:48:03;67.50;50.33;78.02;;
57092;Laerm;42968;52.094;4.328;2022-08-03T07:50:28;73.51;51.34;96.08;;
57092;Laerm;42968;52.094;4.328;2022-08-03T07:52:54;67.87;49.38;77.19;;
57092;Laerm;42968;52.094;4.328;2022-08-03T07:55:23;69.05;52.90;84.69;;
57092;Laerm;42968;52.094;4.328;2022-08-03T07:58:02;66.89;48.40;77.09;;
57092;Laerm;42968;52.094;4.328;2022-08-03T08:00:28;68.43;45.80;81.48;;
57092;Laerm;42968;52.094;4.328;2022-08-03T08:02:53;65.49;46.50;74.28;;
57092;Laerm;42968;52.094;4.328;2022-08-03T08:05:18;67.42;50.48;77.89;;
57092;Laerm;42968;52.094;4.328;2022-08-03T08:07:44;67.60;48.64;73.84;;
57092;Laerm;42968;52.094;4.328;2022-08-03T08:10:09;67.97;52.57;78.92;;
57092;Laerm;42968;52.094;4.328;2022-08-03T08:12:35;68.14;52.43;75.69;;
57092;Laerm;42968;52.094;4.328;2022-08-03T08:15:00;67.01;49.32;78.80;;
57092;Laerm;42968;52.094;4.328;2022-08-03T08:17:25;67.13;48.08;77.45;;
57092;Laerm;42968;52.094;4.328;2022-08-03T08:19:51;76.86;55.18;99.44;;
57092;Laerm;42968;52.094;4.328;2022-08-03T08:22:16;67.46;45.86;78.21;;
57092;Laerm;42968;52.094;4.328;2022-08-03T08:24:41;68.40;50.14;80.27;;
57092;Laerm;42968;52.094;4.328;2022-08-03T08:27:08;69.08;56.91;80.84;;
57092;Laerm;42968;52.094;4.328;2022-08-03T08:29:36;68.38;51.79;79.89;;
57092;Laerm;42968;52.094;4.328;2022-08-03T08:32:01;70.33;45.57;92.35;;
57092;Laerm;42968;52.094;4.328;2022-08-03T08:34:26;67.30;44.11;75.69;;
57092;Laerm;42968;52.094;4.328;2022-08-03T08:36:52;69.29;47.06;80.52;;
57092;Laerm;42968;52.094;4.328;2022-08-03T08:39:17;66.02;48.31;77.50;;
57092;Laerm;42968;52.094;4.328;2022-08-03T08:41:42;69.24;50.20;80.70;;
57092;Laerm;42968;52.094;4.328;2022-08-03T08:44:08;69.29;52.63;78.81;;
57092;Laerm;42968;52.094;4.328;2022-08-03T08:46:34;68.10;55.58;79.23;;
57092;Laerm;42968;52.094;4.328;2022-08-03T08:49:01;66.82;46.78;79.71;;
57092;Laerm;42968;52.094;4.328;2022-08-03T08:51:27;69.33;47.36;76.63;;
57092;Laerm;42968;52.094;4.328;2022-08-03T08:53:53;69.40;48.25;81.14;;
57092;Laerm;42968;52.094;4.328;2022-08-03T08:56:19;67.59;46.76;75.37;;
57092;Laerm;42968;52.094;4.328;2022-08-03T08:58:47;69.52;53.82;78.99;;
57092;Laerm;42968;52.094;4.328;2022-08-03T09:01:13;67.33;50.74;76.47;;
57092;Laerm;42968;52.094;4.328;2022-08-03T09:03:38;67.54;52.53;78.78;;
57092;Laerm;42968;52.094;4.328;2022-08-03T09:06:04;69.16;56.36;76.90;;
57092;Laerm;42968;52.094;4.328;2022-08-03T09:08:29;69.10;57.19;82.23;;
57092;Laerm;42968;52.094;4.328;2022-08-03T09:10:55;67.73;49.25;78.63;;
57092;Laerm;42968;52.094;4.328;2022-08-03T09:13:20;68.32;50.25;77.99;;
57092;Laerm;42968;52.094;4.328;2022-08-03T09:15:45;69.57;57.00;83.12;;
57092;Laerm;42968;52.094;4.328;2022-08-03T09:18:11;66.44;45.30;77.97;;
57092;Laerm;42968;52.094;4.328;2022-08-03T09:20:38;68.58;45.17;77.87;;
57092;Laerm;42968;52.094;4.328;2022-08-03T09:23:04;66.99;46.55;77.50;;
57092;Laerm;42968;52.094;4.328;2022-08-03T09:25:36;68.77;51.92;82.38;;
57092;Laerm;42968;52.094;4.328;2022-08-03T09:28:06;70.08;50.54;80.27;;
57092;Laerm;42968;52.094;4.328;2022-08-03T09:30:31;67.82;52.50;79.18;;
57092;Laerm;42968;52.094;4.328;2022-08-03T09:33:04;70.03;59.04;84.18;;
57092;Laerm;42968;52.094;4.328;2022-08-03T09:35:29;68.25;48.10;77.53;;
57092;Laerm;42968;52.094;4.328;2022-08-03T09:38:08;70.12;48.45;78.91;;
57092;Laerm;42968;52.094;4.328;2022-08-03T09:40:33;67.66;47.65;78.13;;
57092;Laerm;42968;52.094;4.328;2022-08-03T09:42:59;68.52;55.03;80.23;;
57092;Laerm;42968;52.094;4.328;2022-08-03T09:45:25;70.05;54.36;80.85;;
57092;Laerm;42968;52.094;4.328;2022-08-03T09:47:51;70.22;57.61;82.59;;
57092;Laerm;42968;52.094;4.328;2022-08-03T09:50:17;67.03;46.52;80.94;;
57092;Laerm;42968;52.094;4.328;2022-08-03T09:52:42;69.27;57.39;81.33;;
57092;Laerm;42968;52.094;4.328;2022-08-03T09:55:09;68.87;52.22;79.07;;
57092;Laerm;42968;52.094;4.328;2022-08-03T09:57:34;67.86;56.03;77.79;;
57092;Laerm;42968;52.094;4.328;2022-08-03T10:00:11;67.83;52.41;79.25;;
57092;Laerm;42968;52.094;4.328;2022-08-03T10:02:37;68.75;51.78;81.01;;
57092;Laerm;42968;52.094;4.328;2022-08-03T10:05:03;69.45;47.12;78.31;;
57092;Laerm;42968;52.094;4.328;2022-08-03T10:07:29;70.16;55.52;86.00;;
57092;Laerm;42968;52.094;4.328;2022-08-03T10:09:58;79.00;55.16;101.13;;
57092;Laerm;42968;52.094;4.328;2022-08-03T10:12:23;65.70;54.73;77.19;;
57092;Laerm;42968;52.094;4.328;2022-08-03T10:14:49;68.43;57.82;80.88;;
57092;Laerm;42968;52.094;4.328;2022-08-03T10:17:15;68.26;57.00;78.44;;
57092;Laerm;42968;52.094;4.328;2022-08-03T10:19:40;69.85;55.40;81.29;;
57092;Laerm;42968;52.094;4.328;2022-08-03T10:22:10;66.41;50.09;76.49;;
57092;Laerm;42968;52.094;4.328;2022-08-03T10:24:36;69.07;48.84;82.99;;
57092;Laerm;42968;52.094;4.328;2022-08-03T10:27:04;67.37;48.49;75.19;;
57092;Laerm;42968;52.094;4.328;2022-08-03T10:29:33;68.95;51.77;81.95;;
57092;Laerm;42968;52.094;4.328;2022-08-03T10:32:00;69.24;51.97;76.78;;
57092;Laerm;42968;52.094;4.328;2022-08-03T10:34:30;69.95;50.54;79.98;;
57092;Laerm;42968;52.094;4.328;2022-08-03T10:36:58;69.65;48.29;85.24;;
57092;Laerm;42968;52.094;4.328;2022-08-03T10:39:26;69.31;50.59;82.72;;
57092;Laerm;42968;52.094;4.328;2022-08-03T10:41:52;67.06;48.29;76.44;;
57092;Laerm;42968;52.094;4.328;2022-08-03T10:44:19;66.51;54.34;75.97;;
57092;Laerm;42968;52.094;4.328;2022-08-03T10:46:47;68.34;51.22;86.63;;
57092;Laerm;42968;52.094;4.328;2022-08-03T10:49:13;68.31;44.15;79.34;;
57092;Laerm;42968;52.094;4.328;2022-08-03T10:51:39;69.42;53.69;80.47;;
57092;Laerm;42968;52.094;4.328;2022-08-03T10:54:05;69.32;45.77;82.39;;
57092;Laerm;42968;52.094;4.328;2022-08-03T10:59:18;66.33;45.11;75.21;;
57092;Laerm;42968;52.094;4.328;2022-08-03T11:01:53;68.29;48.52;77.69;;
57092;Laerm;42968;52.094;4.328;2022-08-03T11:04:19;69.14;48.05;77.83;;
57092;Laerm;42968;52.094;4.328;2022-08-03T11:06:45;69.61;49.19;80.24;;
57092;Laerm;42968;52.094;4.328;2022-08-03T11:09:16;67.45;51.32;78.90;;
57092;Laerm;42968;52.094;4.328;2022-08-03T11:11:43;69.36;52.46;81.29;;
57092;Laerm;42968;52.094;4.328;2022-08-03T11:14:16;66.74;56.34;76.16;;
57092;Laerm;42968;52.094;4.328;2022-08-03T11:16:42;68.69;49.45;80.03;;
57092;Laerm;42968;52.094;4.328;2022-08-03T11:19:21;68.93;51.51;82.97;;
57092;Laerm;42968;52.094;4.328;2022-08-03T11:21:52;68.46;56.58;78.24;;
57092;Laerm;42968;52.094;4.328;2022-08-03T11:37:31;68.69;50.23;79.90;;
57092;Laerm;42968;52.094;4.328;2022-08-03T11:39:57;68.94;49.40;81.07;;
57092;Laerm;42968;52.094;4.328;2022-08-03T11:44:58;69.64;54.70;81.49;;
57092;Laerm;42968;52.094;4.328;2022-08-03T11:47:24;68.14;53.29;76.93;;
57092;Laerm;42968;52.094;4.328;2022-08-03T11:49:52;69.34;48.25;79.93;;
57092;Laerm;42968;52.094;4.328;2022-08-03T11:52:18;68.10;47.30;76.74;;
57092;Laerm;42968;52.094;4.328;2022-08-03T11:54:44;69.64;46.78;84.26;;
57092;Laerm;42968;52.094;4.328;2022-08-03T11:57:09;67.09;46.57;82.18;;
57092;Laerm;42968;52.094;4.328;2022-08-03T11:59:35;68.22;47.52;80.63;;
57092;Laerm;42968;52.094;4.328;2022-08-03T12:02:07;68.66;48.29;78.72;;
57092;Laerm;42968;52.094;4.328;2022-08-03T12:04:52;65.34;47.00;76.90;;
57092;Laerm;42968;52.094;4.328;2022-08-03T12:07:18;69.02;53.22;77.75;;
57092;Laerm;42968;52.094;4.328;2022-08-03T12:10:03;67.11;47.22;76.65;;
57092;Laerm;42968;52.094;4.328;2022-08-03T12:12:28;68.23;49.04;81.21;;
57092;Laerm;42968;52.094;4.328;2022-08-03T12:14:54;70.83;51.11;89.17;;
57092;Laerm;42968;52.094;4.328;2022-08-03T12:17:19;69.48;48.37;86.96;;
57092;Laerm;42968;52.094;4.328;2022-08-03T12:19:44;68.71;50.12;81.76;;
57092;Laerm;42968;52.094;4.328;2022-08-03T12:22:09;67.40;47.68;78.63;;
57092;Laerm;42968;52.094;4.328;2022-08-03T12:24:42;70.05;48.48;82.75;;
57092;Laerm;42968;52.094;4.328;2022-08-03T12:27:07;69.64;52.24;81.02;;
57092;Laerm;42968;52.094;4.328;2022-08-03T12:29:33;68.84;51.33;79.77;;
57092;Laerm;42968;52.094;4.328;2022-08-03T12:31:58;72.70;48.34;95.00;;
57092;Laerm;42968;52.094;4.328;2022-08-03T12:34:23;67.15;49.57;76.04;;
57092;Laerm;42968;52.094;4.328;2022-08-03T12:37:08;69.51;51.34;83.75;;
57092;Laerm;42968;52.094;4.328;2022-08-03T12:39:33;68.99;49.84;79.91;;
57092;Laerm;42968;52.094;4.328;2022-08-03T12:41:59;67.83;46.57;82.02;;
57092;Laerm;42968;52.094;4.328;2022-08-03T12:44:28;68.35;51.36;76.70;;
57092;Laerm;42968;52.094;4.328;2022-08-03T12:46:56;68.98;54.91;80.14;;
57092;Laerm;42968;52.094;4.328;2022-08-03T12:49:21;67.21;56.80;75.64;;
57092;Laerm;42968;52.094;4.328;2022-08-03T12:59:38;68.32;51.51;78.50;;
57092;Laerm;42968;52.094;4.328;2022-08-03T13:04:41;68.36;48.34;79.99;;
57092;Laerm;42968;52.094;4.328;2022-08-03T13:07:07;68.44;53.30;76.73;;
57092;Laerm;42968;52.094;4.328;2022-08-03T13:12:31;68.13;53.10;77.11;;
57092;Laerm;42968;52.094;4.328;2022-08-03T13:14:59;68.30;49.44;83.57;;
57092;Laerm;42968;52.094;4.328;2022-08-03T13:17:25;67.58;48.64;76.35;;
57092;Laerm;42968;52.094;4.328;2022-08-03T13:19:51;66.65;45.94;74.64;;
57092;Laerm;42968;52.094;4.328;2022-08-03T13:24:42;69.17;45.17;84.68;;
57092;Laerm;42968;52.094;4.328;2022-08-03T13:27:08;70.40;45.60;81.30;;
57092;Laerm;42968;52.094;4.328;2022-08-03T13:29:34;69.52;56.19;83.95;;
57092;Laerm;42968;52.094;4.328;2022-08-03T13:32:02;68.60;53.07;78.36;;
57092;Laerm;42968;52.094;4.328;2022-08-03T13:34:28;68.25;48.20;79.93;;
57092;Laerm;42968;52.094;4.328;2022-08-03T13:36:53;68.24;52.11;78.06;;
57092;Laerm;42968;52.094;4.328;2022-08-03T13:39:18;67.17;49.80;82.28;;
57092;Laerm;42968;52.094;4.328;2022-08-03T13:41:44;69.45;50.88;81.85;;
57092;Laerm;42968;52.094;4.328;2022-08-03T13:44:09;68.89;56.97;84.80;;
57092;Laerm;42968;52.094;4.328;2022-08-03T13:46:35;67.01;51.32;77.38;;
57092;Laerm;42968;52.094;4.328;2022-08-03T13:49:00;67.52;54.00;78.74;;
57092;Laerm;42968;52.094;4.328;2022-08-03T13:51:25;70.98;51.04;94.61;;
57092;Laerm;42968;52.094;4.328;2022-08-03T13:53:50;69.02;52.66;77.83;;
57092;Laerm;42968;52.094;4.328;2022-08-03T13:56:16;68.23;52.38;82.86;;
57092;Laerm;42968;52.094;4.328;2022-08-03T13:58:41;68.41;50.87;78.52;;
57092;Laerm;42968;52.094;4.328;2022-08-03T14:01:06;68.47;53.10;77.12;;
57092;Laerm;42968;52.094;4.328;2022-08-03T14:03:32;67.72;51.62;81.06;;
57092;Laerm;42968;52.094;4.328;2022-08-03T14:05:57;67.17;47.65;84.70;;
57092;Laerm;42968;52.094;4.328;2022-08-03T14:08:22;68.72;51.83;81.20;;
57092;Laerm;42968;52.094;4.328;2022-08-03T14:10:48;67.73;48.20;78.02;;
57092;Laerm;42968;52.094;4.328;2022-08-03T14:13:13;68.78;54.51;77.27;;
57092;Laerm;42968;52.094;4.328;2022-08-03T14:15:39;67.71;51.37;77.79;;
57092;Laerm;42968;52.094;4.328;2022-08-03T14:18:06;70.46;50.58;82.94;;
57092;Laerm;42968;52.094;4.328;2022-08-03T14:20:31;67.77;53.41;77.32;;
57092;Laerm;42968;52.094;4.328;2022-08-03T14:22:56;69.37;53.99;78.97;;
57092;Laerm;42968;52.094;4.328;2022-08-03T14:25:22;67.52;50.80;76.40;;